createdAt,value
2023-05-18T00:00:01.979Z,78.76
2023-05-18T00:02:51.534Z,78.99
2023-05-18T00:05:18.239Z,78.80
2023-05-18T00:07:46.234Z,78.08
2023-05-18T00:10:12.709Z,78.67
2023-05-18T00:12:39.255Z,78.89
2023-05-18T00:15:06.147Z,79.18
2023-05-18T00:17:32.559Z,79.43
2023-05-18T00:20:00.355Z,78.59
2023-05-18T00:22:26.803Z,78.67
2023-05-18T00:24:53.212Z,78.96
2023-05-18T00:27:19.756Z,79.44
2023-05-18T00:29:46.253Z,79.06
2023-05-18T00:32:12.662Z,78.97
2023-05-18T00:34:39.235Z,79.00
2023-05-18T00:37:05.767Z,78.45
2023-05-18T00:39:32.113Z,78.71
2023-05-18T00:41:58.608Z,79.08
2023-05-18T00:44:26.122Z,79.47
2023-05-18T00:46:53.697Z,79.07
2023-05-18T00:49:20.570Z,79.33
2023-05-18T00:51:47.458Z,79.46
2023-05-18T00:54:15.880Z,79.57
2023-05-18T00:56:45.530Z,79.97
2023-05-18T00:59:12.067Z,79.90
2023-05-18T01:01:43.069Z,79.73
2023-05-18T01:04:09.816Z,79.68
2023-05-18T01:06:36.666Z,79.85
2023-05-18T01:09:06.107Z,79.82
2023-05-18T01:11:32.613Z,79.86
2023-05-18T01:14:39.395Z,79.89
2023-05-18T01:17:21.146Z,79.81
2023-05-18T01:19:50.953Z,79.77
2023-05-18T01:22:33.289Z,80.05
2023-05-18T01:25:16.794Z,80.07
2023-05-18T01:27:45.775Z,80.55
2023-05-18T01:30:17.377Z,80.41
2023-05-18T01:32:46.391Z,81.19
2023-05-18T01:35:13.004Z,81.15
2023-05-18T01:37:39.854Z,81.40
2023-05-18T01:40:08.567Z,81.78
2023-05-18T01:42:44.041Z,81.54
2023-05-18T01:45:21.015Z,82.01
2023-05-18T01:47:48.715Z,81.14
2023-05-18T01:50:25.177Z,81.61
2023-05-18T01:52:57.766Z,81.40
2023-05-18T01:55:29.123Z,81.79
2023-05-18T01:57:59.841Z,81.44
2023-05-18T02:00:26.736Z,81.73
2023-05-18T02:02:53.173Z,81.88
2023-05-18T02:05:19.741Z,81.85
2023-05-18T02:07:47.147Z,81.62
2023-05-18T02:10:14.136Z,81.61
2023-05-18T02:12:41.065Z,82.00
2023-05-18T02:15:09.530Z,81.93
2023-05-18T02:17:39.334Z,81.77
2023-05-18T02:20:07.318Z,81.97
2023-05-18T02:22:34.856Z,82.56
2023-05-18T02:25:02.664Z,82.97
2023-05-18T02:27:29.302Z,83.42
2023-05-18T02:29:56.083Z,82.89
2023-05-18T02:32:23.479Z,83.13
2023-05-18T02:34:53.072Z,83.04
2023-05-18T02:37:22.349Z,82.95
2023-05-18T02:39:49.372Z,83.78
2023-05-18T02:42:15.784Z,84.10
2023-05-18T02:44:44.710Z,84.08
2023-05-18T02:47:13.470Z,83.39
2023-05-18T02:49:40.971Z,83.38
2023-05-18T02:52:07.452Z,84.57
2023-05-18T02:54:34.062Z,84.93
2023-05-18T02:57:01.077Z,86.00
2023-05-18T02:59:35.651Z,86.20
2023-05-18T03:02:02.518Z,86.02
2023-05-18T03:04:28.977Z,85.18
2023-05-18T03:06:56.579Z,84.31
2023-05-18T03:09:23.362Z,84.70
2023-05-18T03:11:51.108Z,84.75
2023-05-18T03:14:17.429Z,84.78
2023-05-18T03:16:44.597Z,85.04
2023-05-18T03:19:15.309Z,85.00
2023-05-18T03:21:41.970Z,86.13
2023-05-18T03:24:08.432Z,86.12
2023-05-18T03:26:39.171Z,85.78
2023-05-18T03:29:05.785Z,87.22
2023-05-18T03:31:32.701Z,86.54
2023-05-18T03:33:59.544Z,86.21
2023-05-18T03:36:27.427Z,86.67
2023-05-18T03:38:54.050Z,85.82
2023-05-18T03:41:21.455Z,85.58
2023-05-18T03:43:47.860Z,85.95
2023-05-18T03:46:14.296Z,86.05
2023-05-18T03:48:40.626Z,85.96
2023-05-18T03:51:07.296Z,86.35
2023-05-18T03:53:35.526Z,86.34
2023-05-18T03:56:01.992Z,86.35
2023-05-18T03:58:29.347Z,86.28
2023-05-18T04:01:01.275Z,85.93
2023-05-18T04:03:27.886Z,86.57
2023-05-18T04:05:55.181Z,86.65
2023-05-18T04:08:24.760Z,86.48
2023-05-18T04:10:51.983Z,85.91
2023-05-18T04:13:18.458Z,85.77
2023-05-18T04:15:45.225Z,85.44
2023-05-18T04:18:13.093Z,86.08
2023-05-18T04:20:41.920Z,85.70
2023-05-18T04:23:09.498Z,85.56
2023-05-18T04:25:35.878Z,85.91
2023-05-18T04:28:02.484Z,86.03
2023-05-18T04:30:30.392Z,85.01
2023-05-18T04:32:59.836Z,85.21
2023-05-18T04:35:27.221Z,85.67
2023-05-18T04:37:54.005Z,85.57
2023-05-18T04:40:20.376Z,85.94
2023-05-18T04:42:49.109Z,86.05
2023-05-18T04:45:25.345Z,85.38
2023-05-18T04:47:54.792Z,85.47
2023-05-18T04:50:23.081Z,84.72
2023-05-18T04:52:50.823Z,84.41
2023-05-18T04:55:27.307Z,84.23
2023-05-18T04:58:04.218Z,83.89
2023-05-18T05:00:30.809Z,84.06
2023-05-18T05:02:58.584Z,83.97
2023-05-18T05:05:26.224Z,83.58
2023-05-18T05:07:53.574Z,83.43
2023-05-18T05:10:21.508Z,83.86
2023-05-18T05:12:50.784Z,83.02
2023-05-18T05:15:18.406Z,82.91
2023-05-18T05:17:48.165Z,83.08
2023-05-18T05:20:15.613Z,82.51
2023-05-18T05:22:42.387Z,81.89
2023-05-18T05:25:10.806Z,81.94
2023-05-18T05:27:38.261Z,81.83
2023-05-18T05:30:05.438Z,81.80
2023-05-18T05:32:35.316Z,81.82
2023-05-18T05:35:02.817Z,81.52
2023-05-18T05:37:29.317Z,82.03
2023-05-18T05:39:56.237Z,82.22
2023-05-18T05:42:24.777Z,81.56
2023-05-18T05:44:51.187Z,81.77
2023-05-18T05:47:18.949Z,81.81
2023-05-18T05:49:45.607Z,81.59
2023-05-18T05:52:12.100Z,81.33
2023-05-18T05:54:40.436Z,81.12
2023-05-18T05:57:07.056Z,81.24
2023-05-18T05:59:33.624Z,80.93
2023-05-18T06:02:00.491Z,81.16
2023-05-18T06:04:27.409Z,80.67
2023-05-18T06:06:54.766Z,80.32
2023-05-18T06:09:21.483Z,81.26
2023-05-18T06:11:52.260Z,80.86
2023-05-18T06:14:19.104Z,79.74
2023-05-18T06:16:45.639Z,80.25
2023-05-18T06:19:12.257Z,79.19
2023-05-18T06:21:39.125Z,79.72
2023-05-18T06:24:06.294Z,79.57
2023-05-18T06:27:01.833Z,79.32
2023-05-18T06:29:37.650Z,77.85
2023-05-18T06:32:32.579Z,79.00
2023-05-18T06:35:00.282Z,78.58
2023-05-18T06:37:26.686Z,78.05
2023-05-18T06:39:53.197Z,77.36
2023-05-18T06:42:19.811Z,77.47
2023-05-18T06:44:53.517Z,76.78
2023-05-18T06:47:28.765Z,75.45
2023-05-18T06:49:55.387Z,77.27
2023-05-18T06:52:23.188Z,77.03
2023-05-18T06:54:50.770Z,76.68
2023-05-18T06:57:17.625Z,76.39
2023-05-18T06:59:44.148Z,75.92
2023-05-18T07:02:10.501Z,75.73
2023-05-18T07:04:37.070Z,75.47
2023-05-18T07:07:03.570Z,74.83
2023-05-18T07:09:30.105Z,75.16
2023-05-18T07:11:56.510Z,74.17
2023-05-18T07:14:23.381Z,73.54
2023-05-18T07:16:49.758Z,73.55
2023-05-18T07:19:16.130Z,73.88
2023-05-18T07:21:42.538Z,73.14
2023-05-18T07:24:09.205Z,73.78
2023-05-18T07:26:35.596Z,72.74
2023-05-18T07:29:02.161Z,73.10
2023-05-18T07:31:28.548Z,73.58
2023-05-18T07:33:55.045Z,71.30
2023-05-18T07:36:21.583Z,70.37
2023-05-18T07:38:53.410Z,71.28
2023-05-18T07:41:22.049Z,71.15
2023-05-18T07:43:50.519Z,69.90
2023-05-18T07:46:17.761Z,69.55
2023-05-18T07:48:44.831Z,70.40
2023-05-18T07:51:11.787Z,71.81
2023-05-18T07:53:38.856Z,69.97
2023-05-18T07:56:06.942Z,68.43
2023-05-18T07:58:34.966Z,70.04
2023-05-18T08:01:01.444Z,67.46
2023-05-18T08:03:27.831Z,66.89
2023-05-18T08:05:54.409Z,66.16
2023-05-18T08:08:21.163Z,67.90
2023-05-18T08:10:47.591Z,66.39
2023-05-18T08:13:14.342Z,66.06
2023-05-18T08:15:40.693Z,66.16
2023-05-18T08:18:07.130Z,64.76
2023-05-18T08:20:33.776Z,66.66
2023-05-18T08:23:00.175Z,66.12
2023-05-18T08:25:26.543Z,65.44
2023-05-18T08:27:53.108Z,65.21
2023-05-18T08:30:21.101Z,66.49
2023-05-18T08:32:48.249Z,65.44
2023-05-18T08:35:14.705Z,64.02
2023-05-18T08:37:41.111Z,65.29
2023-05-18T08:40:10.882Z,64.14
2023-05-18T08:42:58.423Z,63.97
2023-05-18T08:45:38.558Z,61.67
2023-05-18T08:48:05.669Z,64.83
2023-05-18T08:50:32.525Z,63.80
2023-05-18T08:53:05.267Z,62.36
2023-05-18T08:55:36.392Z,62.33
2023-05-18T08:58:06.602Z,61.97
2023-05-18T09:00:33.493Z,62.08
2023-05-18T09:03:00.564Z,62.69
2023-05-18T09:05:27.268Z,62.13
2023-05-18T09:07:54.289Z,63.22
2023-05-18T09:10:22.080Z,64.31
2023-05-18T09:12:50.085Z,61.53
2023-05-18T09:15:21.311Z,60.67
2023-05-18T09:17:47.689Z,62.40
2023-05-18T09:20:15.870Z,60.16
2023-05-18T09:22:42.359Z,60.22
2023-05-18T09:25:09.972Z,58.60
2023-05-18T09:27:37.590Z,59.33
2023-05-18T09:30:04.567Z,59.38
2023-05-18T09:32:35.591Z,58.27
2023-05-18T09:35:06.060Z,58.47
2023-05-18T09:37:33.261Z,56.63
2023-05-18T09:40:01.563Z,56.45
2023-05-18T09:42:39.333Z,57.73
2023-05-18T09:45:26.119Z,57.57
2023-05-18T09:47:52.791Z,57.09
2023-05-18T09:50:23.340Z,58.54
2023-05-18T09:52:50.426Z,57.49
2023-05-18T09:55:19.075Z,56.96
2023-05-18T09:57:47.557Z,56.37
2023-05-18T10:00:16.318Z,56.21
2023-05-18T10:02:48.241Z,56.01
2023-05-18T10:05:33.210Z,56.13
2023-05-18T10:08:01.308Z,55.32
2023-05-18T10:10:28.947Z,56.16
2023-05-18T10:12:57.743Z,56.50
2023-05-18T10:15:24.842Z,55.85
2023-05-18T10:17:55.757Z,55.09
2023-05-18T10:20:23.768Z,54.48
2023-05-18T10:22:50.256Z,55.63
2023-05-18T10:25:24.898Z,56.81
2023-05-18T10:27:56.251Z,56.94
2023-05-18T10:30:22.972Z,56.72
2023-05-18T10:32:51.778Z,56.59
2023-05-18T10:35:18.888Z,54.22
2023-05-18T10:37:47.305Z,55.33
2023-05-18T10:40:17.028Z,56.48
2023-05-18T10:42:45.586Z,55.72
2023-05-18T10:45:12.236Z,55.75
2023-05-18T10:47:41.958Z,56.09
2023-05-18T10:50:09.369Z,55.64
2023-05-18T10:52:40.714Z,55.87
2023-05-18T10:55:08.846Z,54.81
2023-05-18T10:57:42.866Z,55.56
2023-05-18T11:00:09.987Z,54.31
2023-05-18T11:02:41.716Z,55.21
2023-05-18T11:05:10.260Z,54.98
2023-05-18T11:07:37.879Z,54.67
2023-05-18T11:10:09.438Z,56.50
2023-05-18T11:12:37.806Z,55.32
2023-05-18T11:15:05.329Z,54.77
2023-05-18T11:17:31.894Z,53.78
2023-05-18T11:20:07.453Z,54.67
2023-05-18T11:22:46.012Z,56.49
2023-05-18T11:25:27.690Z,56.05
2023-05-18T11:28:05.878Z,56.04
2023-05-18T11:30:32.302Z,56.78
2023-05-18T11:33:11.134Z,56.77
2023-05-18T11:36:12.922Z,56.02
2023-05-18T11:38:53.574Z,56.16
2023-05-18T11:41:46.959Z,55.87
2023-05-18T11:44:24.257Z,54.77
2023-05-18T11:46:53.588Z,55.41
2023-05-18T11:49:23.264Z,55.95
2023-05-18T11:52:24.310Z,55.77
2023-05-18T11:55:00.634Z,56.77
2023-05-18T11:57:35.776Z,57.28
2023-05-18T12:00:12.788Z,55.23
2023-05-18T12:02:43.137Z,54.97
2023-05-18T12:05:10.530Z,55.72
2023-05-18T12:07:38.458Z,55.93
2023-05-18T12:10:11.202Z,55.54
2023-05-18T12:12:38.898Z,55.28
2023-05-18T12:15:07.253Z,55.30
2023-05-18T12:17:43.824Z,57.90
2023-05-18T12:20:14.873Z,57.65
2023-05-18T12:22:43.825Z,57.62
2023-05-18T12:25:10.994Z,56.95
2023-05-18T12:27:43.111Z,56.39
2023-05-18T12:30:13.377Z,55.57
2023-05-18T12:32:47.964Z,56.26
2023-05-18T12:35:14.506Z,56.64
2023-05-18T12:37:45.968Z,55.83
2023-05-18T12:40:15.242Z,56.04
2023-05-18T12:43:03.579Z,55.22
2023-05-18T12:45:32.449Z,55.74
2023-05-18T12:48:06.251Z,55.99
2023-05-18T12:50:34.137Z,55.30
2023-05-18T12:53:03.358Z,56.11
2023-05-18T12:55:31.370Z,56.67
2023-05-18T12:58:17.229Z,56.34
2023-05-18T13:00:47.774Z,58.05
2023-05-18T13:03:20.878Z,57.54
2023-05-18T13:06:03.042Z,56.80
2023-05-18T13:08:31.499Z,57.07
2023-05-18T13:11:12.845Z,56.68
2023-05-18T13:14:04.033Z,57.93
2023-05-18T13:16:32.287Z,58.22
2023-05-18T13:19:01.920Z,56.59
2023-05-18T13:21:28.824Z,57.79
2023-05-18T13:23:56.718Z,57.23
2023-05-18T13:26:24.704Z,57.57
2023-05-18T13:28:54.059Z,58.08
2023-05-18T13:31:21.609Z,59.18
2023-05-18T13:33:49.660Z,59.84
2023-05-18T13:36:16.895Z,59.62
2023-05-18T13:38:43.480Z,59.17
2023-05-18T13:41:14.393Z,58.76
2023-05-18T13:43:42.006Z,59.25
2023-05-18T13:46:08.414Z,58.78
2023-05-18T13:48:34.857Z,59.99
2023-05-18T13:51:01.476Z,59.74
2023-05-18T13:53:27.943Z,60.16
2023-05-18T13:55:54.307Z,59.72
2023-05-18T13:58:20.644Z,60.17
2023-05-18T14:00:47.127Z,61.10
2023-05-18T14:03:14.462Z,60.44
2023-05-18T14:05:41.178Z,61.47
2023-05-18T14:08:07.734Z,61.68
2023-05-18T14:10:34.282Z,60.91
2023-05-18T14:13:00.736Z,62.14
2023-05-18T14:15:27.114Z,60.70
2023-05-18T14:17:53.577Z,61.08
2023-05-18T14:20:20.252Z,61.78
2023-05-18T14:22:46.698Z,62.05
2023-05-18T14:25:13.119Z,62.97
2023-05-18T14:27:39.475Z,62.71
2023-05-18T14:30:06.656Z,62.64
2023-05-18T14:32:33.151Z,61.93
2023-05-18T14:34:59.594Z,61.63
2023-05-18T14:37:26.125Z,61.62
2023-05-18T14:39:52.780Z,62.59
2023-05-18T14:42:19.422Z,61.81
2023-05-18T14:44:46.820Z,62.59
2023-05-18T14:47:13.322Z,62.14
2023-05-18T14:49:39.725Z,62.30
2023-05-18T14:52:06.245Z,63.41
2023-05-18T14:54:32.667Z,63.92
2023-05-18T14:56:59.134Z,63.58
2023-05-18T14:59:25.479Z,63.54
2023-05-18T15:01:51.984Z,63.80
2023-05-18T15:04:21.053Z,63.58
2023-05-18T15:06:48.662Z,63.56
2023-05-18T15:09:15.355Z,63.56
2023-05-18T15:11:41.878Z,63.93
2023-05-18T15:14:08.292Z,64.31
2023-05-18T15:16:35.270Z,64.20
2023-05-18T15:19:01.970Z,63.70
2023-05-18T15:21:28.825Z,63.82
2023-05-18T15:23:55.426Z,64.13
2023-05-18T15:26:21.823Z,63.53
2023-05-18T15:28:48.695Z,63.66
2023-05-18T15:31:15.913Z,64.12
2023-05-18T15:33:43.136Z,64.16
2023-05-18T15:36:10.088Z,64.35
2023-05-18T15:38:36.491Z,65.02
2023-05-18T15:41:03.253Z,64.38
2023-05-18T15:43:30.378Z,64.45
2023-05-18T15:45:57.524Z,64.89
2023-05-18T15:48:23.948Z,63.74
2023-05-18T15:50:50.307Z,64.26
2023-05-18T15:53:16.687Z,64.46
2023-05-18T15:55:43.027Z,64.65
2023-05-18T15:58:09.454Z,64.66
2023-05-18T16:00:35.820Z,65.78
2023-05-18T16:03:02.297Z,65.70
2023-05-18T16:05:29.114Z,65.11
2023-05-18T16:07:55.776Z,65.76
2023-05-18T16:10:22.887Z,65.58
2023-05-18T16:12:49.205Z,65.86
2023-05-18T16:15:15.687Z,66.11
2023-05-18T16:17:42.118Z,66.21
2023-05-18T16:20:09.049Z,65.93
2023-05-18T16:22:35.530Z,66.58
2023-05-18T16:25:01.893Z,68.32
2023-05-18T16:27:28.243Z,67.69
2023-05-18T16:29:54.685Z,67.37
2023-05-18T16:32:21.210Z,67.16
2023-05-18T16:34:47.624Z,67.62
2023-05-18T16:37:13.965Z,67.53
2023-05-18T16:39:40.518Z,67.42
2023-05-18T16:42:07.013Z,67.30
2023-05-18T16:44:34.057Z,67.33
2023-05-18T16:47:00.312Z,67.78
2023-05-18T16:49:26.690Z,66.27
2023-05-18T16:51:53.211Z,66.21
2023-05-18T16:54:19.657Z,66.50
2023-05-18T16:56:46.255Z,66.43
2023-05-18T16:59:12.665Z,66.54
2023-05-18T17:01:38.955Z,66.71
2023-05-18T17:04:05.495Z,67.02
2023-05-18T17:06:31.910Z,66.64
2023-05-18T17:08:58.659Z,67.23
2023-05-18T17:11:27.009Z,67.00
2023-05-18T17:13:53.730Z,67.26
2023-05-18T17:16:21.332Z,67.22
2023-05-18T17:18:48.254Z,66.92
2023-05-18T17:21:15.348Z,66.79
2023-05-18T17:23:41.625Z,67.07
2023-05-18T17:26:08.026Z,67.10
2023-05-18T17:28:34.361Z,67.25
2023-05-18T17:31:00.807Z,68.14
2023-05-18T17:33:27.096Z,67.63
2023-05-18T17:35:53.421Z,67.55
2023-05-18T17:38:21.810Z,67.69
2023-05-18T17:40:48.065Z,68.05
2023-05-18T17:43:14.413Z,68.09
2023-05-18T17:45:40.793Z,68.20
2023-05-18T17:48:07.176Z,67.93
2023-05-18T17:50:36.919Z,69.03
2023-05-18T17:53:04.192Z,69.98
2023-05-18T17:55:30.652Z,71.49
2023-05-18T17:57:58.919Z,72.31
2023-05-18T18:00:25.369Z,71.32
2023-05-18T18:02:51.745Z,70.91
2023-05-18T18:05:18.129Z,72.64
2023-05-18T18:07:44.467Z,73.69
2023-05-18T18:10:11.143Z,74.33
2023-05-18T18:12:37.423Z,73.19
2023-05-18T18:15:03.991Z,71.66
2023-05-18T18:17:30.660Z,71.32
2023-05-18T18:19:57.782Z,71.33
2023-05-18T18:22:24.097Z,72.93
2023-05-18T18:24:50.362Z,75.28
2023-05-18T18:27:18.692Z,74.92
2023-05-18T18:29:45.600Z,76.03
2023-05-18T18:32:11.941Z,74.55
2023-05-18T18:34:38.331Z,75.00
2023-05-18T18:37:04.978Z,76.28
2023-05-18T18:39:31.438Z,77.71
2023-05-18T18:41:57.784Z,75.77
2023-05-18T18:44:24.080Z,77.38
2023-05-18T18:46:50.509Z,77.25
2023-05-18T18:49:16.954Z,76.47
2023-05-18T18:51:43.624Z,77.68
2023-05-18T18:54:10.260Z,78.16
2023-05-18T18:56:36.587Z,79.51
2023-05-18T18:59:02.943Z,79.86
2023-05-18T19:01:29.292Z,80.33
2023-05-18T19:03:55.677Z,79.14
2023-05-18T19:06:22.624Z,79.52
2023-05-18T19:08:51.513Z,81.62
2023-05-18T19:11:17.951Z,81.83
2023-05-18T19:13:44.203Z,80.54
2023-05-18T19:16:10.656Z,78.20
2023-05-18T19:18:37.109Z,79.26
2023-05-18T19:21:03.517Z,77.62
2023-05-18T19:23:29.788Z,78.18
2023-05-18T19:25:56.190Z,77.45
2023-05-18T19:28:22.716Z,77.45
2023-05-18T19:30:48.999Z,77.66
2023-05-18T19:33:15.498Z,77.66
2023-05-18T19:35:41.971Z,78.05
2023-05-18T19:38:08.428Z,77.97
2023-05-18T19:40:35.192Z,78.97
2023-05-18T19:43:02.526Z,78.46
2023-05-18T19:45:29.118Z,79.48
2023-05-18T19:47:57.176Z,80.21
2023-05-18T19:50:23.565Z,79.56
2023-05-18T19:52:50.102Z,79.36
2023-05-18T19:55:17.123Z,82.38
2023-05-18T19:57:43.428Z,82.30
2023-05-18T20:00:13.098Z,80.26
2023-05-18T20:02:39.586Z,80.80
2023-05-18T20:05:06.896Z,82.07
2023-05-18T20:07:33.440Z,82.30
2023-05-18T20:09:59.871Z,81.83
2023-05-18T20:12:27.635Z,81.94
2023-05-18T20:14:54.508Z,84.34
2023-05-18T20:17:20.952Z,82.98
2023-05-18T20:19:49.881Z,84.98
2023-05-18T20:22:17.206Z,85.13
2023-05-18T20:24:44.054Z,83.92
2023-05-18T20:27:14.457Z,85.16
2023-05-18T20:29:40.894Z,85.36
2023-05-18T20:32:07.345Z,86.23
2023-05-18T20:34:34.368Z,85.54
2023-05-18T20:37:01.921Z,84.19
2023-05-18T20:39:28.340Z,84.25
2023-05-18T20:41:54.661Z,84.69
2023-05-18T20:44:22.785Z,84.54
2023-05-18T20:46:52.197Z,84.06
2023-05-18T20:49:20.963Z,84.18
2023-05-18T20:51:48.567Z,84.01
2023-05-18T20:54:17.156Z,85.22
2023-05-18T20:56:43.782Z,84.80
2023-05-18T20:59:11.983Z,84.56
2023-05-18T21:01:38.787Z,85.07
2023-05-18T21:04:05.684Z,84.60
2023-05-18T21:06:32.205Z,83.09
2023-05-18T21:08:58.640Z,82.92
2023-05-18T21:11:25.515Z,83.12
2023-05-18T21:13:51.989Z,85.11
2023-05-18T21:16:18.602Z,85.29
2023-05-18T21:18:45.053Z,85.22
2023-05-18T21:21:11.346Z,84.76
2023-05-18T21:23:37.828Z,84.57
2023-05-18T21:26:04.273Z,84.85
2023-05-18T21:28:31.102Z,85.05
2023-05-18T21:30:57.553Z,85.57
2023-05-18T21:33:24.117Z,85.37
2023-05-18T21:35:50.672Z,84.76
2023-05-18T21:38:17.057Z,85.58
2023-05-18T21:40:43.936Z,85.56
2023-05-18T21:43:10.991Z,84.76
2023-05-18T21:45:38.196Z,86.21
2023-05-18T21:48:05.000Z,86.46
2023-05-18T21:50:33.764Z,86.17
2023-05-18T21:53:02.153Z,86.90
2023-05-18T21:55:29.735Z,86.74
2023-05-18T21:57:56.073Z,86.57
2023-05-18T22:00:22.428Z,85.89
2023-05-18T22:02:48.732Z,84.20
2023-05-18T22:05:15.484Z,85.10
2023-05-18T22:07:42.109Z,85.52
2023-05-18T22:10:08.690Z,87.10
2023-05-18T22:12:37.091Z,86.13
2023-05-18T22:15:04.134Z,87.30
2023-05-18T22:17:30.498Z,87.88
2023-05-18T22:19:57.518Z,86.52
2023-05-18T22:24:55.422Z,87.85
2023-05-18T22:27:21.740Z,88.04
2023-05-18T22:29:48.004Z,86.51
2023-05-18T22:32:16.324Z,85.50
2023-05-18T22:34:42.714Z,88.50
2023-05-18T22:37:08.987Z,86.63
2023-05-18T22:39:35.298Z,86.56
2023-05-18T22:42:01.589Z,86.91
2023-05-18T22:44:27.960Z,86.70
2023-05-18T22:46:54.474Z,86.79
2023-05-18T22:49:21.479Z,85.33
2023-05-18T22:51:47.804Z,84.98
2023-05-18T22:54:14.276Z,85.12
2023-05-18T22:56:40.624Z,84.84
2023-05-18T22:59:09.552Z,84.54
2023-05-18T23:01:36.961Z,84.60
2023-05-18T23:04:03.354Z,83.93
2023-05-18T23:06:31.019Z,84.38
2023-05-18T23:08:59.781Z,84.78
2023-05-18T23:11:27.663Z,84.80
2023-05-18T23:13:54.020Z,84.95
2023-05-18T23:16:20.696Z,85.42
2023-05-18T23:18:48.090Z,85.16
2023-05-18T23:21:14.361Z,85.29
2023-05-18T23:23:40.857Z,86.29
2023-05-18T23:26:08.441Z,86.32
2023-05-18T23:28:35.023Z,85.99
2023-05-18T23:31:01.304Z,85.72
2023-05-18T23:33:28.107Z,86.57
2023-05-18T23:35:59.173Z,86.63
2023-05-18T23:38:33.979Z,85.71
2023-05-18T23:41:03.021Z,87.01
2023-05-18T23:43:29.716Z,86.17
2023-05-18T23:45:58.851Z,86.10
2023-05-18T23:48:31.647Z,87.09
2023-05-18T23:51:01.052Z,86.75
2023-05-18T23:53:31.846Z,85.33
2023-05-18T23:55:59.460Z,85.41
2023-05-18T23:58:31.354Z,86.13
